sensor_id;sensor_type;location;lat;lon;timestamp;P1;durP1;ratioP1;P2;durP2;ratioP2
4756;SDS011;2392;52.578;13.426;2023-07-09T00:02:22;6.60;;;6.10;;
4756;SDS011;2392;52.578;13.426;2023-07-09T00:04:50;15.10;;;6.00;;
4756;SDS011;2392;52.578;13.426;2023-07-09T00:07:17;7.07;;;5.87;;
4756;SDS011;2392;52.578;13.426;2023-07-09T00:09:49;6.10;;;5.50;;
4756;SDS011;2392;52.578;13.426;2023-07-09T00:12:16;6.00;;;5.50;;
4756;SDS011;2392;52.578;13.426;2023-07-09T00:14:46;5.83;;;5.43;;
4756;SDS011;2392;52.578;13.426;2023-07-09T00:17:18;6.80;;;6.13;;
4756;SDS011;2392;52.578;13.426;2023-07-09T00:19:48;6.53;;;5.57;;
4756;SDS011;2392;52.578;13.426;2023-07-09T00:22:17;7.57;;;5.90;;
4756;SDS011;2392;52.578;13.426;2023-07-09T00:24:45;6.00;;;5.50;;
4756;SDS011;2392;52.578;13.426;2023-07-09T00:27:16;5.67;;;5.20;;
4756;SDS011;2392;52.578;13.426;2023-07-09T00:29:44;6.00;;;5.40;;
4756;SDS011;2392;52.578;13.426;2023-07-09T00:32:13;5.57;;;5.10;;
4756;SDS011;2392;52.578;13.426;2023-07-09T00:34:41;5.60;;;5.10;;
4756;SDS011;2392;52.578;13.426;2023-07-09T00:37:14;10.50;;;5.40;;
4756;SDS011;2392;52.578;13.426;2023-07-09T00:39:42;5.60;;;5.20;;
4756;SDS011;2392;52.578;13.426;2023-07-09T00:42:13;8.47;;;5.67;;
4756;SDS011;2392;52.578;13.426;2023-07-09T00:44:43;5.53;;;5.03;;
4756;SDS011;2392;52.578;13.426;2023-07-09T00:47:20;5.43;;;5.03;;
4756;SDS011;2392;52.578;13.426;2023-07-09T00:49:55;6.00;;;5.50;;
4756;SDS011;2392;52.578;13.426;2023-07-09T00:52:32;6.00;;;5.50;;
4756;SDS011;2392;52.578;13.426;2023-07-09T00:55:03;5.80;;;5.30;;
4756;SDS011;2392;52.578;13.426;2023-07-09T00:57:34;5.53;;;5.00;;
4756;SDS011;2392;52.578;13.426;2023-07-09T01:00:05;11.10;;;4.93;;
4756;SDS011;2392;52.578;13.426;2023-07-09T01:02:37;5.93;;;5.27;;
4756;SDS011;2392;52.578;13.426;2023-07-09T01:05:10;6.10;;;5.60;;
4756;SDS011;2392;52.578;13.426;2023-07-09T01:07:39;5.77;;;5.13;;
4756;SDS011;2392;52.578;13.426;2023-07-09T01:10:07;5.43;;;5.00;;
4756;SDS011;2392;52.578;13.426;2023-07-09T01:12:36;6.00;;;5.57;;
4756;SDS011;2392;52.578;13.426;2023-07-09T01:15:03;6.30;;;5.70;;
4756;SDS011;2392;52.578;13.426;2023-07-09T01:17:33;8.03;;;5.40;;
4756;SDS011;2392;52.578;13.426;2023-07-09T01:20:01;9.40;;;6.00;;
4756;SDS011;2392;52.578;13.426;2023-07-09T01:22:30;6.27;;;5.77;;
4756;SDS011;2392;52.578;13.426;2023-07-09T01:24:58;6.37;;;5.80;;
4756;SDS011;2392;52.578;13.426;2023-07-09T01:27:28;6.30;;;5.70;;
4756;SDS011;2392;52.578;13.426;2023-07-09T01:29:58;6.13;;;5.57;;
4756;SDS011;2392;52.578;13.426;2023-07-09T01:32:27;6.33;;;5.80;;
4756;SDS011;2392;52.578;13.426;2023-07-09T01:34:57;5.63;;;5.10;;
4756;SDS011;2392;52.578;13.426;2023-07-09T01:37:31;7.13;;;5.43;;
4756;SDS011;2392;52.578;13.426;2023-07-09T01:40:01;5.80;;;5.30;;
4756;SDS011;2392;52.578;13.426;2023-07-09T01:42:30;7.90;;;6.23;;
4756;SDS011;2392;52.578;13.426;2023-07-09T01:44:58;5.93;;;5.43;;
4756;SDS011;2392;52.578;13.426;2023-07-09T01:47:26;7.60;;;5.30;;
4756;SDS011;2392;52.578;13.426;2023-07-09T01:49:53;6.00;;;5.50;;
4756;SDS011;2392;52.578;13.426;2023-07-09T01:52:22;7.90;;;5.90;;
4756;SDS011;2392;52.578;13.426;2023-07-09T01:54:54;5.83;;;5.43;;
4756;SDS011;2392;52.578;13.426;2023-07-09T01:57:23;6.23;;;5.70;;
4756;SDS011;2392;52.578;13.426;2023-07-09T01:59:53;7.13;;;6.20;;
4756;SDS011;2392;52.578;13.426;2023-07-09T02:02:21;7.10;;;6.40;;
4756;SDS011;2392;52.578;13.426;2023-07-09T02:04:49;6.77;;;6.17;;
4756;SDS011;2392;52.578;13.426;2023-07-09T02:07:17;6.20;;;5.60;;
4756;SDS011;2392;52.578;13.426;2023-07-09T02:09:45;5.53;;;5.17;;
4756;SDS011;2392;52.578;13.426;2023-07-09T02:12:13;5.67;;;5.27;;
4756;SDS011;2392;52.578;13.426;2023-07-09T02:14:41;9.47;;;6.03;;
4756;SDS011;2392;52.578;13.426;2023-07-09T02:17:09;7.57;;;5.77;;
4756;SDS011;2392;52.578;13.426;2023-07-09T02:19:37;7.27;;;6.40;;
4756;SDS011;2392;52.578;13.426;2023-07-09T02:22:04;8.80;;;5.70;;
4756;SDS011;2392;52.578;13.426;2023-07-09T02:24:32;6.10;;;5.60;;
4756;SDS011;2392;52.578;13.426;2023-07-09T02:27:00;6.73;;;6.07;;
4756;SDS011;2392;52.578;13.426;2023-07-09T02:29:30;7.33;;;6.63;;
4756;SDS011;2392;52.578;13.426;2023-07-09T02:31:58;10.73;;;6.47;;
4756;SDS011;2392;52.578;13.426;2023-07-09T02:34:26;7.20;;;6.50;;
4756;SDS011;2392;52.578;13.426;2023-07-09T02:36:54;6.73;;;6.13;;
4756;SDS011;2392;52.578;13.426;2023-07-09T02:39:23;8.23;;;6.00;;
4756;SDS011;2392;52.578;13.426;2023-07-09T02:41:51;10.93;;;6.07;;
4756;SDS011;2392;52.578;13.426;2023-07-09T02:44:18;8.43;;;5.63;;
4756;SDS011;2392;52.578;13.426;2023-07-09T02:46:47;10.37;;;6.13;;
4756;SDS011;2392;52.578;13.426;2023-07-09T02:49:14;5.97;;;5.40;;
4756;SDS011;2392;52.578;13.426;2023-07-09T02:51:42;6.90;;;6.20;;
4756;SDS011;2392;52.578;13.426;2023-07-09T02:54:09;5.93;;;5.40;;
4756;SDS011;2392;52.578;13.426;2023-07-09T02:56:36;6.30;;;5.70;;
4756;SDS011;2392;52.578;13.426;2023-07-09T02:59:04;5.70;;;5.30;;
4756;SDS011;2392;52.578;13.426;2023-07-09T03:01:31;6.10;;;5.60;;
4756;SDS011;2392;52.578;13.426;2023-07-09T03:04:00;7.30;;;5.37;;
4756;SDS011;2392;52.578;13.426;2023-07-09T03:06:28;5.80;;;5.30;;
4756;SDS011;2392;52.578;13.426;2023-07-09T03:08:58;6.00;;;5.40;;
4756;SDS011;2392;52.578;13.426;2023-07-09T03:11:28;6.40;;;5.80;;
4756;SDS011;2392;52.578;13.426;2023-07-09T03:13:57;6.40;;;5.80;;
4756;SDS011;2392;52.578;13.426;2023-07-09T03:16:25;6.03;;;5.53;;
4756;SDS011;2392;52.578;13.426;2023-07-09T03:18:53;6.87;;;5.80;;
4756;SDS011;2392;52.578;13.426;2023-07-09T03:21:21;7.17;;;6.43;;
4756;SDS011;2392;52.578;13.426;2023-07-09T03:23:48;6.33;;;5.73;;
4756;SDS011;2392;52.578;13.426;2023-07-09T03:26:16;6.60;;;6.07;;
4756;SDS011;2392;52.578;13.426;2023-07-09T03:28:43;6.90;;;5.73;;
4756;SDS011;2392;52.578;13.426;2023-07-09T03:31:10;6.97;;;6.37;;
4756;SDS011;2392;52.578;13.426;2023-07-09T03:33:37;5.57;;;5.07;;
4756;SDS011;2392;52.578;13.426;2023-07-09T03:36:04;6.33;;;5.73;;
4756;SDS011;2392;52.578;13.426;2023-07-09T03:38:33;7.67;;;6.60;;
4756;SDS011;2392;52.578;13.426;2023-07-09T03:41:00;6.67;;;6.03;;
4756;SDS011;2392;52.578;13.426;2023-07-09T03:43:27;9.40;;;6.00;;
4756;SDS011;2392;52.578;13.426;2023-07-09T03:45:54;6.80;;;6.30;;
4756;SDS011;2392;52.578;13.426;2023-07-09T03:48:21;7.30;;;6.47;;
4756;SDS011;2392;52.578;13.426;2023-07-09T03:50:48;6.40;;;5.90;;
4756;SDS011;2392;52.578;13.426;2023-07-09T03:53:15;6.70;;;6.10;;
4756;SDS011;2392;52.578;13.426;2023-07-09T03:55:44;6.73;;;6.23;;
4756;SDS011;2392;52.578;13.426;2023-07-09T03:58:12;7.13;;;6.43;;
4756;SDS011;2392;52.578;13.426;2023-07-09T04:00:39;6.97;;;6.37;;
4756;SDS011;2392;52.578;13.426;2023-07-09T04:03:06;7.20;;;6.50;;
4756;SDS011;2392;52.578;13.426;2023-07-09T04:05:35;8.90;;;6.43;;
4756;SDS011;2392;52.578;13.426;2023-07-09T04:08:02;7.13;;;6.10;;
4756;SDS011;2392;52.578;13.426;2023-07-09T04:10:30;7.13;;;6.43;;
4756;SDS011;2392;52.578;13.426;2023-07-09T04:12:58;6.80;;;5.97;;
4756;SDS011;2392;52.578;13.426;2023-07-09T04:15:26;6.37;;;5.77;;
4756;SDS011;2392;52.578;13.426;2023-07-09T04:17:53;6.37;;;5.80;;
4756;SDS011;2392;52.578;13.426;2023-07-09T04:20:20;9.07;;;6.43;;
4756;SDS011;2392;52.578;13.426;2023-07-09T04:22:47;7.73;;;7.03;;
4756;SDS011;2392;52.578;13.426;2023-07-09T04:25:14;7.00;;;6.37;;
4756;SDS011;2392;52.578;13.426;2023-07-09T04:27:41;6.83;;;6.33;;
4756;SDS011;2392;52.578;13.426;2023-07-09T04:30:10;7.10;;;6.50;;
4756;SDS011;2392;52.578;13.426;2023-07-09T04:32:39;7.67;;;6.70;;
4756;SDS011;2392;52.578;13.426;2023-07-09T04:35:08;6.83;;;6.33;;
4756;SDS011;2392;52.578;13.426;2023-07-09T04:37:36;8.13;;;6.70;;
4756;SDS011;2392;52.578;13.426;2023-07-09T04:40:04;7.23;;;6.60;;
4756;SDS011;2392;52.578;13.426;2023-07-09T04:42:35;7.47;;;6.20;;
4756;SDS011;2392;52.578;13.426;2023-07-09T04:45:04;6.53;;;6.03;;
4756;SDS011;2392;52.578;13.426;2023-07-09T04:47:33;6.03;;;5.63;;
4756;SDS011;2392;52.578;13.426;2023-07-09T04:50:01;7.43;;;6.83;;
4756;SDS011;2392;52.578;13.426;2023-07-09T04:52:28;8.33;;;7.53;;
4756;SDS011;2392;52.578;13.426;2023-07-09T04:54:56;7.07;;;6.33;;
4756;SDS011;2392;52.578;13.426;2023-07-09T04:57:24;6.70;;;6.20;;
4756;SDS011;2392;52.578;13.426;2023-07-09T04:59:51;7.00;;;6.30;;
4756;SDS011;2392;52.578;13.426;2023-07-09T05:02:18;6.80;;;6.30;;
4756;SDS011;2392;52.578;13.426;2023-07-09T05:04:47;7.37;;;6.70;;
4756;SDS011;2392;52.578;13.426;2023-07-09T05:07:13;7.30;;;6.10;;
4756;SDS011;2392;52.578;13.426;2023-07-09T05:09:40;7.17;;;6.40;;
4756;SDS011;2392;52.578;13.426;2023-07-09T05:12:08;6.70;;;6.07;;
4756;SDS011;2392;52.578;13.426;2023-07-09T05:14:35;7.07;;;6.43;;
4756;SDS011;2392;52.578;13.426;2023-07-09T05:17:02;6.90;;;6.30;;
4756;SDS011;2392;52.578;13.426;2023-07-09T05:19:30;6.77;;;6.27;;
4756;SDS011;2392;52.578;13.426;2023-07-09T05:21:59;6.70;;;6.20;;
4756;SDS011;2392;52.578;13.426;2023-07-09T05:24:26;6.97;;;6.37;;
4756;SDS011;2392;52.578;13.426;2023-07-09T05:26:53;6.80;;;6.13;;
4756;SDS011;2392;52.578;13.426;2023-07-09T05:29:20;7.13;;;6.43;;
4756;SDS011;2392;52.578;13.426;2023-07-09T05:31:47;6.47;;;5.97;;
4756;SDS011;2392;52.578;13.426;2023-07-09T05:34:14;7.30;;;6.70;;
4756;SDS011;2392;52.578;13.426;2023-07-09T05:36:41;6.10;;;5.63;;
4756;SDS011;2392;52.578;13.426;2023-07-09T05:39:09;7.20;;;6.23;;
4756;SDS011;2392;52.578;13.426;2023-07-09T05:41:36;8.03;;;6.00;;
4756;SDS011;2392;52.578;13.426;2023-07-09T05:44:03;7.67;;;6.90;;
4756;SDS011;2392;52.578;13.426;2023-07-09T05:46:33;7.20;;;6.60;;
4756;SDS011;2392;52.578;13.426;2023-07-09T05:49:02;6.17;;;5.77;;
4756;SDS011;2392;52.578;13.426;2023-07-09T05:51:29;6.00;;;5.50;;
4756;SDS011;2392;52.578;13.426;2023-07-09T05:53:56;5.93;;;5.50;;
4756;SDS011;2392;52.578;13.426;2023-07-09T05:56:24;6.30;;;5.70;;
4756;SDS011;2392;52.578;13.426;2023-07-09T05:58:51;8.77;;;7.10;;
4756;SDS011;2392;52.578;13.426;2023-07-09T06:01:18;8.73;;;6.80;;
4756;SDS011;2392;52.578;13.426;2023-07-09T06:03:46;7.37;;;6.37;;
4756;SDS011;2392;52.578;13.426;2023-07-09T06:06:14;6.40;;;5.90;;
4756;SDS011;2392;52.578;13.426;2023-07-09T06:08:41;6.20;;;5.70;;
4756;SDS011;2392;52.578;13.426;2023-07-09T06:11:08;6.17;;;5.73;;
4756;SDS011;2392;52.578;13.426;2023-07-09T06:13:36;6.10;;;5.43;;
4756;SDS011;2392;52.578;13.426;2023-07-09T06:16:04;6.63;;;6.13;;
4756;SDS011;2392;52.578;13.426;2023-07-09T06:18:31;6.43;;;5.93;;
4756;SDS011;2392;52.578;13.426;2023-07-09T06:21:00;13.17;;;5.90;;
4756;SDS011;2392;52.578;13.426;2023-07-09T06:23:28;6.33;;;5.83;;
4756;SDS011;2392;52.578;13.426;2023-07-09T06:25:55;6.67;;;5.30;;
4756;SDS011;2392;52.578;13.426;2023-07-09T06:28:23;6.33;;;5.80;;
4756;SDS011;2392;52.578;13.426;2023-07-09T06:30:53;5.70;;;5.20;;
4756;SDS011;2392;52.578;13.426;2023-07-09T06:33:19;6.30;;;5.77;;
4756;SDS011;2392;52.578;13.426;2023-07-09T06:35:47;6.57;;;5.83;;
4756;SDS011;2392;52.578;13.426;2023-07-09T06:38:15;6.63;;;6.03;;
4756;SDS011;2392;52.578;13.426;2023-07-09T06:40:42;5.70;;;5.17;;
4756;SDS011;2392;52.578;13.426;2023-07-09T06:43:10;6.53;;;5.90;;
4756;SDS011;2392;52.578;13.426;2023-07-09T06:45:41;6.23;;;5.83;;
4756;SDS011;2392;52.578;13.426;2023-07-09T06:48:16;5.90;;;5.50;;
4756;SDS011;2392;52.578;13.426;2023-07-09T06:50:44;7.90;;;5.93;;
4756;SDS011;2392;52.578;13.426;2023-07-09T06:53:11;5.83;;;5.37;;
4756;SDS011;2392;52.578;13.426;2023-07-09T06:55:38;6.47;;;5.93;;
4756;SDS011;2392;52.578;13.426;2023-07-09T06:58:05;5.53;;;5.17;;
4756;SDS011;2392;52.578;13.426;2023-07-09T07:00:33;6.30;;;5.70;;
4756;SDS011;2392;52.578;13.426;2023-07-09T07:03:01;6.60;;;5.93;;
4756;SDS011;2392;52.578;13.426;2023-07-09T07:05:29;6.07;;;5.60;;
4756;SDS011;2392;52.578;13.426;2023-07-09T07:07:56;5.93;;;5.43;;
4756;SDS011;2392;52.578;13.426;2023-07-09T07:10:23;6.43;;;5.93;;
4756;SDS011;2392;52.578;13.426;2023-07-09T07:12:52;5.37;;;4.97;;
4756;SDS011;2392;52.578;13.426;2023-07-09T07:15:19;6.13;;;5.57;;
4756;SDS011;2392;52.578;13.426;2023-07-09T07:17:46;10.83;;;6.00;;
4756;SDS011;2392;52.578;13.426;2023-07-09T07:20:15;5.73;;;5.20;;
4756;SDS011;2392;52.578;13.426;2023-07-09T07:22:44;5.20;;;4.70;;
4756;SDS011;2392;52.578;13.426;2023-07-09T07:25:11;5.27;;;4.87;;
4756;SDS011;2392;52.578;13.426;2023-07-09T07:27:38;6.70;;;5.43;;
4756;SDS011;2392;52.578;13.426;2023-07-09T07:30:06;5.53;;;5.10;;
4756;SDS011;2392;52.578;13.426;2023-07-09T07:32:35;6.13;;;5.53;;
4756;SDS011;2392;52.578;13.426;2023-07-09T07:35:04;7.47;;;5.50;;
4756;SDS011;2392;52.578;13.426;2023-07-09T07:37:32;6.20;;;5.57;;
4756;SDS011;2392;52.578;13.426;2023-07-09T07:40:00;9.43;;;6.00;;
4756;SDS011;2392;52.578;13.426;2023-07-09T07:42:29;7.33;;;5.93;;
4756;SDS011;2392;52.578;13.426;2023-07-09T07:44:56;6.13;;;5.50;;
4756;SDS011;2392;52.578;13.426;2023-07-09T07:47:23;5.83;;;5.33;;
4756;SDS011;2392;52.578;13.426;2023-07-09T07:49:50;5.97;;;5.53;;
4756;SDS011;2392;52.578;13.426;2023-07-09T07:52:17;6.87;;;6.27;;
4756;SDS011;2392;52.578;13.426;2023-07-09T07:54:44;6.10;;;5.50;;
4756;SDS011;2392;52.578;13.426;2023-07-09T07:57:13;6.40;;;5.80;;
4756;SDS011;2392;52.578;13.426;2023-07-09T07:59:40;6.73;;;6.07;;
4756;SDS011;2392;52.578;13.426;2023-07-09T08:02:10;5.80;;;5.40;;
4756;SDS011;2392;52.578;13.426;2023-07-09T08:04:38;6.20;;;5.77;;
4756;SDS011;2392;52.578;13.426;2023-07-09T08:07:06;5.87;;;5.43;;
4756;SDS011;2392;52.578;13.426;2023-07-09T08:09:34;6.13;;;5.63;;
4756;SDS011;2392;52.578;13.426;2023-07-09T08:12:04;5.97;;;5.47;;
4756;SDS011;2392;52.578;13.426;2023-07-09T08:14:38;6.53;;;5.83;;
4756;SDS011;2392;52.578;13.426;2023-07-09T08:17:07;6.10;;;5.70;;
4756;SDS011;2392;52.578;13.426;2023-07-09T08:19:43;8.13;;;6.10;;
4756;SDS011;2392;52.578;13.426;2023-07-09T08:22:11;6.57;;;6.03;;
4756;SDS011;2392;52.578;13.426;2023-07-09T08:24:38;6.30;;;5.70;;
4756;SDS011;2392;52.578;13.426;2023-07-09T08:27:06;6.07;;;5.57;;
4756;SDS011;2392;52.578;13.426;2023-07-09T08:29:34;6.03;;;5.53;;
4756;SDS011;2392;52.578;13.426;2023-07-09T08:32:02;6.10;;;5.47;;
4756;SDS011;2392;52.578;13.426;2023-07-09T08:34:30;7.23;;;6.20;;
4756;SDS011;2392;52.578;13.426;2023-07-09T08:36:58;7.60;;;6.90;;
4756;SDS011;2392;52.578;13.426;2023-07-09T08:39:25;5.80;;;5.27;;
4756;SDS011;2392;52.578;13.426;2023-07-09T08:41:55;5.97;;;5.47;;
4756;SDS011;2392;52.578;13.426;2023-07-09T08:44:33;5.87;;;5.37;;
4756;SDS011;2392;52.578;13.426;2023-07-09T08:47:14;5.93;;;5.53;;
4756;SDS011;2392;52.578;13.426;2023-07-09T08:49:53;6.00;;;5.60;;
4756;SDS011;2392;52.578;13.426;2023-07-09T08:52:25;5.80;;;5.50;;
4756;SDS011;2392;52.578;13.426;2023-07-09T08:54:55;6.13;;;5.53;;
4756;SDS011;2392;52.578;13.426;2023-07-09T08:57:24;6.60;;;6.10;;
4756;SDS011;2392;52.578;13.426;2023-07-09T08:59:53;6.30;;;5.90;;
4756;SDS011;2392;52.578;13.426;2023-07-09T09:02:29;6.17;;;5.67;;
4756;SDS011;2392;52.578;13.426;2023-07-09T09:04:59;7.93;;;5.03;;
4756;SDS011;2392;52.578;13.426;2023-07-09T09:07:31;6.50;;;5.90;;
4756;SDS011;2392;52.578;13.426;2023-07-09T09:10:05;6.60;;;6.00;;
4756;SDS011;2392;52.578;13.426;2023-07-09T09:12:38;6.73;;;6.17;;
4756;SDS011;2392;52.578;13.426;2023-07-09T09:15:10;6.00;;;5.37;;
4756;SDS011;2392;52.578;13.426;2023-07-09T09:17:43;5.23;;;4.83;;
4756;SDS011;2392;52.578;13.426;2023-07-09T09:20:11;6.20;;;5.70;;
4756;SDS011;2392;52.578;13.426;2023-07-09T09:22:44;5.20;;;4.80;;
4756;SDS011;2392;52.578;13.426;2023-07-09T09:25:18;6.27;;;5.70;;
4756;SDS011;2392;52.578;13.426;2023-07-09T09:27:50;8.73;;;5.17;;
4756;SDS011;2392;52.578;13.426;2023-07-09T09:30:19;6.10;;;5.60;;
4756;SDS011;2392;52.578;13.426;2023-07-09T09:32:50;5.53;;;5.10;;
4756;SDS011;2392;52.578;13.426;2023-07-09T09:35:25;5.80;;;5.20;;
4756;SDS011;2392;52.578;13.426;2023-07-09T09:37:54;7.73;;;5.27;;
4756;SDS011;2392;52.578;13.426;2023-07-09T09:40:22;4.67;;;4.27;;
4756;SDS011;2392;52.578;13.426;2023-07-09T09:42:51;5.77;;;5.37;;
4756;SDS011;2392;52.578;13.426;2023-07-09T09:45:21;5.33;;;4.93;;
4756;SDS011;2392;52.578;13.426;2023-07-09T09:47:57;5.50;;;5.00;;
4756;SDS011;2392;52.578;13.426;2023-07-09T09:50:25;5.73;;;5.30;;
4756;SDS011;2392;52.578;13.426;2023-07-09T09:52:56;5.43;;;5.10;;
4756;SDS011;2392;52.578;13.426;2023-07-09T09:55:28;5.97;;;5.47;;
4756;SDS011;2392;52.578;13.426;2023-07-09T09:57:57;7.67;;;5.53;;
4756;SDS011;2392;52.578;13.426;2023-07-09T10:00:26;6.07;;;5.57;;
4756;SDS011;2392;52.578;13.426;2023-07-09T10:02:59;5.70;;;5.40;;
4756;SDS011;2392;52.578;13.426;2023-07-09T10:05:30;6.13;;;4.93;;
4756;SDS011;2392;52.578;13.426;2023-07-09T10:08:03;6.07;;;5.53;;
4756;SDS011;2392;52.578;13.426;2023-07-09T10:10:34;5.37;;;4.87;;
4756;SDS011;2392;52.578;13.426;2023-07-09T10:13:03;6.13;;;5.37;;
4756;SDS011;2392;52.578;13.426;2023-07-09T10:15:38;9.20;;;6.17;;
4756;SDS011;2392;52.578;13.426;2023-07-09T10:18:12;5.87;;;5.37;;
4756;SDS011;2392;52.578;13.426;2023-07-09T10:20:47;5.53;;;5.03;;
4756;SDS011;2392;52.578;13.426;2023-07-09T10:23:20;5.40;;;5.00;;
4756;SDS011;2392;52.578;13.426;2023-07-09T10:25:53;5.93;;;5.53;;
4756;SDS011;2392;52.578;13.426;2023-07-09T10:28:40;6.10;;;5.70;;
4756;SDS011;2392;52.578;13.426;2023-07-09T10:31:20;5.43;;;5.13;;
4756;SDS011;2392;52.578;13.426;2023-07-09T10:34:00;5.70;;;4.77;;
4756;SDS011;2392;52.578;13.426;2023-07-09T10:36:48;5.57;;;4.90;;
4756;SDS011;2392;52.578;13.426;2023-07-09T10:39:31;7.43;;;5.10;;
4756;SDS011;2392;52.578;13.426;2023-07-09T10:42:01;4.90;;;4.60;;
4756;SDS011;2392;52.578;13.426;2023-07-09T10:44:31;5.33;;;4.83;;
4756;SDS011;2392;52.578;13.426;2023-07-09T10:47:02;5.40;;;4.90;;
4756;SDS011;2392;52.578;13.426;2023-07-09T10:49:34;4.70;;;4.40;;
4756;SDS011;2392;52.578;13.426;2023-07-09T10:52:05;4.90;;;4.70;;
4756;SDS011;2392;52.578;13.426;2023-07-09T10:54:39;5.30;;;5.00;;
4756;SDS011;2392;52.578;13.426;2023-07-09T10:57:11;4.70;;;4.40;;
4756;SDS011;2392;52.578;13.426;2023-07-09T10:59:42;6.10;;;4.57;;
4756;SDS011;2392;52.578;13.426;2023-07-09T11:02:14;4.70;;;4.50;;
4756;SDS011;2392;52.578;13.426;2023-07-09T11:04:49;4.90;;;4.70;;
4756;SDS011;2392;52.578;13.426;2023-07-09T11:07:22;4.87;;;4.57;;
4756;SDS011;2392;52.578;13.426;2023-07-09T11:09:53;4.70;;;4.27;;
4756;SDS011;2392;52.578;13.426;2023-07-09T11:12:24;4.37;;;4.00;;
4756;SDS011;2392;52.578;13.426;2023-07-09T11:14:58;4.93;;;4.53;;
4756;SDS011;2392;52.578;13.426;2023-07-09T11:17:28;4.10;;;3.92;;
4756;SDS011;2392;52.578;13.426;2023-07-09T11:20:00;4.35;;;4.07;;
4756;SDS011;2392;52.578;13.426;2023-07-09T11:22:37;3.92;;;3.72;;
4756;SDS011;2392;52.578;13.426;2023-07-09T11:25:07;4.22;;;3.92;;
4756;SDS011;2392;52.578;13.426;2023-07-09T11:27:45;4.78;;;4.38;;
4756;SDS011;2392;52.578;13.426;2023-07-09T11:30:22;4.78;;;4.20;;
4756;SDS011;2392;52.578;13.426;2023-07-09T11:32:53;4.60;;;4.30;;
4756;SDS011;2392;52.578;13.426;2023-07-09T11:35:25;4.97;;;4.47;;
4756;SDS011;2392;52.578;13.426;2023-07-09T11:37:53;4.60;;;4.40;;
4756;SDS011;2392;52.578;13.426;2023-07-09T11:40:21;5.00;;;4.80;;
4756;SDS011;2392;52.578;13.426;2023-07-09T11:42:50;4.90;;;4.50;;
4756;SDS011;2392;52.578;13.426;2023-07-09T11:45:20;5.30;;;4.90;;
4756;SDS011;2392;52.578;13.426;2023-07-09T11:47:53;5.00;;;4.60;;
4756;SDS011;2392;52.578;13.426;2023-07-09T11:50:31;5.50;;;5.00;;
4756;SDS011;2392;52.578;13.426;2023-07-09T11:53:03;5.40;;;5.10;;
4756;SDS011;2392;52.578;13.426;2023-07-09T11:55:39;5.30;;;5.00;;
4756;SDS011;2392;52.578;13.426;2023-07-09T11:58:08;5.60;;;5.10;;
4756;SDS011;2392;52.578;13.426;2023-07-09T12:00:37;5.27;;;4.93;;
4756;SDS011;2392;52.578;13.426;2023-07-09T12:03:06;6.23;;;5.70;;
4756;SDS011;2392;52.578;13.426;2023-07-09T12:05:39;7.23;;;5.60;;
4756;SDS011;2392;52.578;13.426;2023-07-09T12:08:10;5.37;;;5.07;;
4756;SDS011;2392;52.578;13.426;2023-07-09T12:10:41;5.97;;;5.47;;
4756;SDS011;2392;52.578;13.426;2023-07-09T12:13:10;6.73;;;4.90;;
4756;SDS011;2392;52.578;13.426;2023-07-09T12:15:38;6.00;;;5.50;;
4756;SDS011;2392;52.578;13.426;2023-07-09T12:18:09;5.70;;;5.40;;
4756;SDS011;2392;52.578;13.426;2023-07-09T12:20:39;5.80;;;5.40;;
4756;SDS011;2392;52.578;13.426;2023-07-09T12:23:11;6.73;;;6.23;;
4756;SDS011;2392;52.578;13.426;2023-07-09T12:25:47;7.20;;;5.50;;
4756;SDS011;2392;52.578;13.426;2023-07-09T12:28:15;6.00;;;5.60;;
4756;SDS011;2392;52.578;13.426;2023-07-09T12:30:44;8.17;;;5.73;;
4756;SDS011;2392;52.578;13.426;2023-07-09T12:33:12;5.33;;;5.03;;
4756;SDS011;2392;52.578;13.426;2023-07-09T12:35:44;7.43;;;5.40;;
4756;SDS011;2392;52.578;13.426;2023-07-09T12:38:21;6.27;;;5.77;;
4756;SDS011;2392;52.578;13.426;2023-07-09T12:40:50;5.40;;;5.10;;
4756;SDS011;2392;52.578;13.426;2023-07-09T12:43:19;5.37;;;5.07;;
4756;SDS011;2392;52.578;13.426;2023-07-09T12:45:51;7.33;;;5.60;;
4756;SDS011;2392;52.578;13.426;2023-07-09T12:48:19;5.37;;;5.07;;
4756;SDS011;2392;52.578;13.426;2023-07-09T12:50:51;5.60;;;5.20;;
4756;SDS011;2392;52.578;13.426;2023-07-09T12:53:20;6.53;;;5.73;;
4756;SDS011;2392;52.578;13.426;2023-07-09T12:55:51;5.03;;;4.73;;
4756;SDS011;2392;52.578;13.426;2023-07-09T12:58:22;7.37;;;5.73;;
4756;SDS011;2392;52.578;13.426;2023-07-09T13:01:07;6.17;;;5.77;;
4756;SDS011;2392;52.578;13.426;2023-07-09T13:03:40;6.43;;;5.83;;
4756;SDS011;2392;52.578;13.426;2023-07-09T13:06:25;6.43;;;5.90;;
4756;SDS011;2392;52.578;13.426;2023-07-09T13:08:55;7.20;;;6.10;;
4756;SDS011;2392;52.578;13.426;2023-07-09T13:11:23;6.47;;;5.97;;
4756;SDS011;2392;52.578;13.426;2023-07-09T13:13:55;11.47;;;6.20;;
4756;SDS011;2392;52.578;13.426;2023-07-09T13:16:22;6.40;;;5.80;;
4756;SDS011;2392;52.578;13.426;2023-07-09T13:18:49;5.83;;;5.40;;
4756;SDS011;2392;52.578;13.426;2023-07-09T13:21:18;6.03;;;5.53;;
4756;SDS011;2392;52.578;13.426;2023-07-09T13:23:46;6.37;;;5.80;;
4756;SDS011;2392;52.578;13.426;2023-07-09T13:26:14;5.60;;;5.20;;
4756;SDS011;2392;52.578;13.426;2023-07-09T13:28:42;6.23;;;5.67;;
4756;SDS011;2392;52.578;13.426;2023-07-09T13:31:11;6.03;;;5.63;;
4756;SDS011;2392;52.578;13.426;2023-07-09T13:33:44;5.63;;;5.20;;
4756;SDS011;2392;52.578;13.426;2023-07-09T13:36:16;5.90;;;5.50;;
4756;SDS011;2392;52.578;13.426;2023-07-09T13:38:43;5.83;;;5.20;;
4756;SDS011;2392;52.578;13.426;2023-07-09T13:41:12;5.57;;;5.27;;
4756;SDS011;2392;52.578;13.426;2023-07-09T13:43:41;5.80;;;5.47;;
4756;SDS011;2392;52.578;13.426;2023-07-09T13:46:10;5.80;;;5.10;;
4756;SDS011;2392;52.578;13.426;2023-07-09T13:48:38;5.40;;;5.10;;
4756;SDS011;2392;52.578;13.426;2023-07-09T13:51:11;5.77;;;5.37;;
4756;SDS011;2392;52.578;13.426;2023-07-09T13:53:41;6.07;;;5.47;;
4756;SDS011;2392;52.578;13.426;2023-07-09T13:56:08;5.53;;;5.23;;
4756;SDS011;2392;52.578;13.426;2023-07-09T13:58:36;5.40;;;5.00;;
4756;SDS011;2392;52.578;13.426;2023-07-09T14:01:08;9.23;;;5.60;;
4756;SDS011;2392;52.578;13.426;2023-07-09T14:03:37;6.37;;;5.87;;
4756;SDS011;2392;52.578;13.426;2023-07-09T14:06:05;5.83;;;5.43;;
4756;SDS011;2392;52.578;13.426;2023-07-09T14:08:32;5.90;;;5.47;;
4756;SDS011;2392;52.578;13.426;2023-07-09T14:10:59;6.90;;;5.40;;
4756;SDS011;2392;52.578;13.426;2023-07-09T14:13:26;5.80;;;5.40;;
4756;SDS011;2392;52.578;13.426;2023-07-09T14:15:58;5.70;;;5.30;;
4756;SDS011;2392;52.578;13.426;2023-07-09T14:18:25;6.43;;;5.93;;
4756;SDS011;2392;52.578;13.426;2023-07-09T14:20:52;5.43;;;5.13;;
4756;SDS011;2392;52.578;13.426;2023-07-09T14:23:21;5.90;;;4.90;;
4756;SDS011;2392;52.578;13.426;2023-07-09T14:25:48;6.00;;;5.50;;
4756;SDS011;2392;52.578;13.426;2023-07-09T14:28:16;6.53;;;5.93;;
4756;SDS011;2392;52.578;13.426;2023-07-09T14:30:45;6.13;;;5.47;;
4756;SDS011;2392;52.578;13.426;2023-07-09T14:33:14;6.80;;;6.20;;
4756;SDS011;2392;52.578;13.426;2023-07-09T14:35:42;6.00;;;5.60;;
4756;SDS011;2392;52.578;13.426;2023-07-09T14:38:14;6.33;;;5.83;;
4756;SDS011;2392;52.578;13.426;2023-07-09T14:40:43;6.10;;;5.60;;
4756;SDS011;2392;52.578;13.426;2023-07-09T14:43:11;5.83;;;5.43;;
4756;SDS011;2392;52.578;13.426;2023-07-09T14:45:38;5.70;;;5.40;;
4756;SDS011;2392;52.578;13.426;2023-07-09T14:48:09;6.50;;;5.90;;
4756;SDS011;2392;52.578;13.426;2023-07-09T14:50:38;6.23;;;5.73;;
4756;SDS011;2392;52.578;13.426;2023-07-09T14:53:10;6.40;;;5.90;;
4756;SDS011;2392;52.578;13.426;2023-07-09T14:55:40;6.67;;;6.00;;
4756;SDS011;2392;52.578;13.426;2023-07-09T14:58:11;6.33;;;5.80;;
4756;SDS011;2392;52.578;13.426;2023-07-09T15:00:41;6.60;;;6.10;;
4756;SDS011;2392;52.578;13.426;2023-07-09T15:03:09;6.10;;;5.60;;
4756;SDS011;2392;52.578;13.426;2023-07-09T15:05:38;6.00;;;5.63;;
4756;SDS011;2392;52.578;13.426;2023-07-09T15:08:15;7.73;;;6.17;;
4756;SDS011;2392;52.578;13.426;2023-07-09T15:10:44;5.80;;;5.40;;
4756;SDS011;2392;52.578;13.426;2023-07-09T15:13:14;6.27;;;5.50;;
4756;SDS011;2392;52.578;13.426;2023-07-09T15:15:43;5.80;;;5.40;;